Time;durP1;ratioP1;P1;durP2;ratioP2;P2;SDS_P1;SDS_P2;PMS_P1;PMS_P2;Temp;Humidity;BMP_temperature;BMP_pressure;BME280_temperature;BME280_humidity;BME280_pressure;Samples;Min_cycle;Max_cycle;Signal;HPM_P1;HPM_P2
2023/01/28 00:02:25;;;;;;;9.05;7.72;;;;;;;;;;4932292;28;98937;-67
2023/01/28 00:04:52;;;;;;;8.13;6.82;;;;;;;;;;4932205;28;99540;-68
2023/01/28 00:07:19;;;;;;;9.25;7.60;;;;;;;;;;4931483;28;99251;-68
2023/01/28 00:09:45;;;;;;;7.45;6.65;;;;;;;;;;4931467;28;99968;-68
2023/01/28 00:12:12;;;;;;;8.70;7.22;;;;;;;;;;4932225;28;100098;-67
2023/01/28 00:14:38;;;;;;;9.50;7.68;;;;;;;;;;4920199;28;98532;-68
2023/01/28 00:17:05;;;;;;;10.80;7.55;;;;;;;;;;4929771;28;99626;-67
2023/01/28 00:19:31;;;;;;;10.52;8.05;;;;;;;;;;4931833;28;99084;-67
2023/01/28 00:21:58;;;;;;;9.10;7.43;;;;;;;;;;4932073;28;99222;-67
2023/01/28 00:24:24;;;;;;;10.50;8.00;;;;;;;;;;4932332;28;98828;-68
2023/01/28 00:26:50;;;;;;;10.30;7.90;;;;;;;;;;4932872;28;98456;-68
2023/01/28 00:29:17;;;;;;;10.60;8.05;;;;;;;;;;4931558;28;99510;-68
2023/01/28 00:31:43;;;;;;;10.60;8.10;;;;;;;;;;4931232;28;101768;-68
2023/01/28 00:34:10;;;;;;;10.07;8.10;;;;;;;;;;4931784;28;98552;-68
2023/01/28 00:36:38;;;;;;;9.13;7.72;;;;;;;;;;4934545;28;99264;-67
2023/01/28 00:39:04;;;;;;;10.80;8.55;;;;;;;;;;4930585;28;98575;-68
2023/01/28 00:41:31;;;;;;;9.95;7.80;;;;;;;;;;4930571;28;99459;-68
2023/01/28 00:43:57;;;;;;;9.05;8.00;;;;;;;;;;4929902;28;99651;-67
2023/01/28 00:46:26;;;;;;;12.65;7.85;;;;;;;;;;4932073;28;98826;-68
2023/01/28 00:48:52;;;;;;;8.88;7.53;;;;;;;;;;4931059;28;100238;-67
2023/01/28 00:51:19;;;;;;;9.18;7.30;;;;;;;;;;4931162;28;100143;-67
2023/01/28 00:53:46;;;;;;;8.32;7.40;;;;;;;;;;4930544;28;98564;-68
2023/01/28 00:56:14;;;;;;;8.85;7.20;;;;;;;;;;4933556;28;99488;-67
2023/01/28 00:58:41;;;;;;;7.47;6.70;;;;;;;;;;4932247;28;98777;-68
2023/01/28 01:01:11;;;;;;;7.63;6.80;;;;;;;;;;4930190;28;99433;-67
2023/01/28 01:03:38;;;;;;;9.23;6.70;;;;;;;;;;4931323;28;103012;-67
2023/01/28 01:06:05;;;;;;;8.77;7.00;;;;;;;;;;4930812;28;100228;-69
2023/01/28 01:08:34;;;;;;;10.30;7.43;;;;;;;;;;4930733;28;98966;-68
2023/01/28 01:11:01;;;;;;;8.82;7.93;;;;;;;;;;4931304;28;100774;-68
2023/01/28 01:13:28;;;;;;;8.65;7.72;;;;;;;;;;4930760;28;97804;-68
2023/01/28 01:16:06;;;;;;;8.70;7.80;;;;;;;;;;4930045;28;98923;-69
2023/01/28 01:18:33;;;;;;;9.05;7.30;;;;;;;;;;4933826;28;99561;-69
2023/01/28 01:20:59;;;;;;;9.00;7.47;;;;;;;;;;4930711;28;99170;-68
2023/01/28 01:23:31;;;;;;;8.55;7.35;;;;;;;;;;4929235;28;100052;-68
2023/01/28 01:25:57;;;;;;;10.00;7.68;;;;;;;;;;4931237;28;98718;-68
2023/01/28 01:28:24;;;;;;;9.27;7.53;;;;;;;;;;4931461;28;99605;-68
2023/01/28 01:30:57;;;;;;;7.65;6.85;;;;;;;;;;4930729;28;100047;-66
2023/01/28 01:33:24;;;;;;;8.02;7.07;;;;;;;;;;4931124;28;98586;-68
2023/01/28 01:35:56;;;;;;;9.32;7.40;;;;;;;;;;4930612;28;99251;-68
2023/01/28 01:38:22;;;;;;;9.02;7.18;;;;;;;;;;4931185;28;99008;-68
2023/01/28 01:40:49;;;;;;;9.02;7.30;;;;;;;;;;4934427;28;98535;-68
2023/01/28 01:43:16;;;;;;;9.10;7.57;;;;;;;;;;4930594;28;99846;-68
2023/01/28 01:45:43;;;;;;;8.23;7.32;;;;;;;;;;4930691;28;99284;-68
2023/01/28 01:48:16;;;;;;;8.05;7.25;;;;;;;;;;4931003;28;99971;-68
2023/01/28 01:51:02;;;;;;;9.52;7.95;;;;;;;;;;4929157;28;99595;-69
2023/01/28 01:53:29;;;;;;;9.73;7.97;;;;;;;;;;4931030;28;98483;-68
2023/01/28 01:56:01;;;;;;;8.80;7.85;;;;;;;;;;4930985;28;99181;-68
2023/01/28 01:58:30;;;;;;;10.40;8.02;;;;;;;;;;4930395;28;99338;-69
2023/01/28 02:00:57;;;;;;;10.95;8.35;;;;;;;;;;4930684;28;99066;-69
2023/01/28 02:03:27;;;;;;;10.57;8.98;;;;;;;;;;4933928;28;99501;-69
2023/01/28 02:05:54;;;;;;;9.90;8.10;;;;;;;;;;4928658;28;98990;-68
2023/01/28 02:08:20;;;;;;;10.45;8.43;;;;;;;;;;4930803;28;99082;-68
2023/01/28 02:10:52;;;;;;;10.65;8.82;;;;;;;;;;4928422;28;100205;-68
2023/01/28 02:13:19;;;;;;;10.73;8.93;;;;;;;;;;4929301;28;98781;-69
2023/01/28 02:15:46;;;;;;;10.50;8.80;;;;;;;;;;4929221;28;99130;-68
2023/01/28 02:18:12;;;;;;;10.40;8.57;;;;;;;;;;4930235;28;99531;-68
2023/01/28 02:20:51;;;;;;;9.82;8.25;;;;;;;;;;4930978;28;98520;-68
2023/01/28 02:23:17;;;;;;;9.52;7.90;;;;;;;;;;4930354;28;99458;-69
2023/01/28 02:25:49;;;;;;;12.50;8.38;;;;;;;;;;4932978;28;99946;-69
2023/01/28 02:28:21;;;;;;;10.65;8.48;;;;;;;;;;4931012;28;97834;-69
2023/01/28 02:30:51;;;;;;;9.93;8.52;;;;;;;;;;4930368;28;99473;-68
2023/01/28 02:33:22;;;;;;;10.43;8.60;;;;;;;;;;4931094;28;98529;-68
2023/01/28 02:35:52;;;;;;;9.50;8.05;;;;;;;;;;4930597;28;99541;-69
2023/01/28 02:38:22;;;;;;;10.65;7.97;;;;;;;;;;4924565;28;98512;-68
2023/01/28 02:41:05;;;;;;;9.23;7.43;;;;;;;;;;4914341;28;99009;-68
2023/01/28 02:43:31;;;;;;;9.57;8.10;;;;;;;;;;4914367;28;99193;-68
2023/01/28 02:48:43;;;;;;;10.02;8.55;;;;;;;;;;4936195;28;98818;-68
2023/01/28 02:51:16;;;;;;;8.13;7.32;;;;;;;;;;4931606;28;99584;-68
2023/01/28 02:53:50;;;;;;;10.23;8.30;;;;;;;;;;4933987;28;97765;-68
2023/01/28 02:56:28;;;;;;;9.32;7.88;;;;;;;;;;4932494;28;98868;-69
2023/01/28 02:59:00;;;;;;;10.73;8.80;;;;;;;;;;4933382;28;100746;-69
2023/01/28 03:01:26;;;;;;;12.02;8.48;;;;;;;;;;4932758;28;99252;-69
2023/01/28 03:04:08;;;;;;;9.13;8.15;;;;;;;;;;4933018;28;99950;-68
2023/01/28 03:06:37;;;;;;;9.55;7.88;;;;;;;;;;4930531;28;99722;-68
2023/01/28 03:09:25;;;;;;;10.95;9.02;;;;;;;;;;4936607;28;98528;-68
2023/01/28 03:37:42;;;;;;;9.60;7.93;;;;;;;;;;4891563;28;98606;-66
2023/01/28 03:40:09;;;;;;;12.02;8.18;;;;;;;;;;4891770;28;99528;-66
2023/01/28 03:42:35;;;;;;;9.07;7.68;;;;;;;;;;4891743;28;99492;-68
2023/01/28 03:45:04;;;;;;;9.20;7.65;;;;;;;;;;4875317;28;98628;-68
2023/01/28 03:47:31;;;;;;;10.90;8.52;;;;;;;;;;4892111;28;99142;-68
2023/01/28 03:49:58;;;;;;;10.32;8.82;;;;;;;;;;4891067;28;99494;-68
2023/01/28 03:52:29;;;;;;;9.52;8.10;;;;;;;;;;4928205;28;98791;-68
2023/01/28 03:54:55;;;;;;;12.07;9.20;;;;;;;;;;4931826;28;99533;-68
2023/01/28 03:57:23;;;;;;;11.02;8.82;;;;;;;;;;4935265;28;99596;-68
2023/01/28 03:59:49;;;;;;;9.77;8.20;;;;;;;;;;4932552;28;99663;-68
2023/01/28 04:02:16;;;;;;;10.25;8.27;;;;;;;;;;4931396;28;99415;-67
2023/01/28 04:04:42;;;;;;;10.25;7.88;;;;;;;;;;4932137;28;98556;-68
2023/01/28 04:07:15;;;;;;;12.63;8.60;;;;;;;;;;4931918;28;99566;-68
2023/01/28 04:09:42;;;;;;;9.95;7.93;;;;;;;;;;4931955;28;99794;-68
2023/01/28 04:12:08;;;;;;;9.68;7.75;;;;;;;;;;4932605;28;98126;-68
2023/01/28 04:14:35;;;;;;;10.48;8.35;;;;;;;;;;4932254;28;98855;-68
2023/01/28 04:17:01;;;;;;;10.68;8.10;;;;;;;;;;4931580;28;99468;-68
2023/01/28 04:19:27;;;;;;;9.88;7.55;;;;;;;;;;4935360;28;99246;-68
2023/01/28 04:21:54;;;;;;;12.77;8.65;;;;;;;;;;4931837;28;99569;-68
2023/01/28 04:24:21;;;;;;;10.32;8.43;;;;;;;;;;4931825;28;98528;-68
2023/01/28 04:26:47;;;;;;;13.82;8.48;;;;;;;;;;4931127;28;99542;-68
2023/01/28 04:29:13;;;;;;;9.57;7.90;;;;;;;;;;4931509;28;99575;-68
2023/01/28 04:31:40;;;;;;;9.40;8.05;;;;;;;;;;4931888;28;98558;-68
2023/01/28 04:34:06;;;;;;;9.52;7.95;;;;;;;;;;4931141;28;100192;-69
2023/01/28 04:36:32;;;;;;;10.13;8.32;;;;;;;;;;4927595;28;98621;-68
2023/01/28 04:38:59;;;;;;;9.80;8.23;;;;;;;;;;4913072;28;98531;-68
2023/01/28 04:41:25;;;;;;;8.98;7.65;;;;;;;;;;4915615;28;99507;-68
2023/01/28 04:43:51;;;;;;;10.30;8.25;;;;;;;;;;4912219;28;99287;-68
2023/01/28 04:46:18;;;;;;;8.32;7.15;;;;;;;;;;4922845;28;99966;-68
2023/01/28 04:48:44;;;;;;;9.93;8.07;;;;;;;;;;4931372;28;99794;-68
2023/01/28 04:51:10;;;;;;;9.40;7.80;;;;;;;;;;4931725;28;98780;-68
2023/01/28 04:53:36;;;;;;;9.65;7.82;;;;;;;;;;4931649;28;98611;-68
2023/01/28 04:56:03;;;;;;;8.77;7.47;;;;;;;;;;4930738;28;99391;-68
2023/01/28 04:58:29;;;;;;;9.50;7.55;;;;;;;;;;4931671;28;98792;-68
2023/01/28 05:00:56;;;;;;;9.35;7.70;;;;;;;;;;4934994;28;100071;-68
2023/01/28 05:03:23;;;;;;;7.53;6.68;;;;;;;;;;4931405;28;98507;-68
2023/01/28 05:05:49;;;;;;;8.07;7.13;;;;;;;;;;4930925;28;100179;-68
2023/01/28 05:08:16;;;;;;;8.63;7.72;;;;;;;;;;4930774;28;103273;-68
2023/01/28 05:10:42;;;;;;;8.48;7.32;;;;;;;;;;4931296;28;98528;-68
2023/01/28 05:13:09;;;;;;;8.02;7.18;;;;;;;;;;4931856;28;102178;-68
2023/01/28 05:15:35;;;;;;;8.52;7.43;;;;;;;;;;4931015;28;99525;-68
2023/01/28 05:18:02;;;;;;;9.35;7.18;;;;;;;;;;4931439;28;98841;-68
2023/01/28 05:20:28;;;;;;;11.13;7.30;;;;;;;;;;4931407;28;99238;-68
2023/01/28 05:22:54;;;;;;;9.98;7.28;;;;;;;;;;4932327;28;99488;-68
2023/01/28 05:25:21;;;;;;;8.07;6.88;;;;;;;;;;4931893;28;99047;-68
2023/01/28 05:27:50;;;;;;;8.73;7.25;;;;;;;;;;4930549;28;99842;-68
2023/01/28 05:30:20;;;;;;;10.77;7.38;;;;;;;;;;4931169;28;98562;-68
2023/01/28 05:32:46;;;;;;;8.93;7.43;;;;;;;;;;4930738;28;99204;-68
2023/01/28 05:35:13;;;;;;;8.13;7.28;;;;;;;;;;4930824;28;100734;-68
2023/01/28 05:37:40;;;;;;;9.25;7.63;;;;;;;;;;4924381;28;98550;-68
2023/01/28 05:40:06;;;;;;;8.15;7.10;;;;;;;;;;4911878;28;99273;-68
2023/01/28 05:42:32;;;;;;;8.18;7.03;;;;;;;;;;4911395;28;99822;-68
2023/01/28 05:44:59;;;;;;;9.05;7.57;;;;;;;;;;4914571;28;98849;-68
2023/01/28 05:47:26;;;;;;;9.85;7.97;;;;;;;;;;4930554;28;99555;-68
2023/01/28 05:49:52;;;;;;;9.48;7.60;;;;;;;;;;4931456;28;97709;-68
2023/01/28 05:52:18;;;;;;;9.80;7.68;;;;;;;;;;4930927;28;99001;-68
2023/01/28 05:54:45;;;;;;;9.15;7.45;;;;;;;;;;4930755;28;99508;-68
2023/01/28 05:57:11;;;;;;;11.93;8.20;;;;;;;;;;4930539;28;99253;-68
2023/01/28 05:59:37;;;;;;;9.88;8.07;;;;;;;;;;4930752;28;99920;-68
2023/01/28 06:02:03;;;;;;;10.13;8.02;;;;;;;;;;4930305;28;99578;-68
2023/01/28 06:04:30;;;;;;;10.23;7.93;;;;;;;;;;4930333;28;98849;-68
2023/01/28 06:06:56;;;;;;;9.30;7.60;;;;;;;;;;4933291;28;99184;-68
2023/01/28 06:09:22;;;;;;;10.88;8.13;;;;;;;;;;4932766;28;98529;-68
2023/01/28 06:11:49;;;;;;;8.30;7.32;;;;;;;;;;4934018;28;99158;-68
2023/01/28 06:14:16;;;;;;;9.85;8.52;;;;;;;;;;4923276;28;98791;-68
2023/01/28 06:16:42;;;;;;;10.02;7.88;;;;;;;;;;4928717;28;98502;-68
2023/01/28 06:19:08;;;;;;;9.77;8.07;;;;;;;;;;4933979;28;99517;-68
2023/01/28 06:21:35;;;;;;;10.57;8.13;;;;;;;;;;4933013;28;100572;-68
2023/01/28 06:24:01;;;;;;;11.38;7.65;;;;;;;;;;4933884;28;98541;-68
2023/01/28 06:26:27;;;;;;;11.23;7.95;;;;;;;;;;4933879;28;100705;-68
2023/01/28 06:28:54;;;;;;;10.38;8.00;;;;;;;;;;4936909;28;99667;-68
2023/01/28 06:31:20;;;;;;;9.95;7.50;;;;;;;;;;4933737;28;99149;-68
2023/01/28 06:33:46;;;;;;;10.35;8.35;;;;;;;;;;4933300;28;100494;-68
2023/01/28 06:36:13;;;;;;;9.23;7.38;;;;;;;;;;4929026;28;98524;-67
2023/01/28 06:38:39;;;;;;;9.73;7.57;;;;;;;;;;4914933;28;99173;-67
2023/01/28 06:41:05;;;;;;;10.77;7.38;;;;;;;;;;4914037;28;99543;-67
2023/01/28 06:43:31;;;;;;;9.82;7.60;;;;;;;;;;4914374;28;98569;-67
2023/01/28 06:45:58;;;;;;;11.90;8.73;;;;;;;;;;4921919;28;99459;-67
2023/01/28 06:48:24;;;;;;;10.82;8.15;;;;;;;;;;4933155;28;99565;-67
2023/01/28 06:50:51;;;;;;;9.40;7.82;;;;;;;;;;4936910;28;99008;-67
2023/01/28 06:53:18;;;;;;;11.10;8.43;;;;;;;;;;4931749;28;99443;-67
2023/01/28 06:55:44;;;;;;;11.88;9.00;;;;;;;;;;4933658;28;98591;-67
2023/01/28 06:58:10;;;;;;;10.18;8.20;;;;;;;;;;4933509;28;99207;-68
2023/01/28 07:00:37;;;;;;;10.65;8.32;;;;;;;;;;4933084;28;99695;-68
2023/01/28 07:03:03;;;;;;;18.40;9.13;;;;;;;;;;4932479;28;97853;-68
2023/01/28 07:05:30;;;;;;;12.18;8.25;;;;;;;;;;4932650;28;98747;-68
2023/01/28 07:07:56;;;;;;;14.45;8.70;;;;;;;;;;4932838;28;99536;-67
2023/01/28 07:10:22;;;;;;;13.20;8.02;;;;;;;;;;4935867;28;99634;-67
2023/01/28 07:12:48;;;;;;;10.63;8.18;;;;;;;;;;4932833;28;99570;-67
2023/01/28 07:15:15;;;;;;;12.88;8.20;;;;;;;;;;4931570;28;98561;-67
2023/01/28 07:17:41;;;;;;;11.25;8.35;;;;;;;;;;4931771;28;99437;-67
2023/01/28 07:20:09;;;;;;;11.07;8.40;;;;;;;;;;4930810;28;99812;-67
2023/01/28 07:22:38;;;;;;;11.93;8.70;;;;;;;;;;4932573;28;98521;-67
2023/01/28 07:25:05;;;;;;;11.13;8.30;;;;;;;;;;4933244;28;100525;-67
2023/01/28 07:27:31;;;;;;;12.60;9.07;;;;;;;;;;4932907;28;98798;-67
2023/01/28 07:29:58;;;;;;;10.20;7.88;;;;;;;;;;4933093;28;98521;-67
2023/01/28 07:32:26;;;;;;;10.93;8.52;;;;;;;;;;4935695;28;99199;-68
2023/01/28 07:34:52;;;;;;;11.15;8.43;;;;;;;;;;4932340;28;99424;-67
2023/01/28 07:37:19;;;;;;;11.20;8.60;;;;;;;;;;4917129;28;99974;-67
2023/01/28 07:39:45;;;;;;;12.18;9.10;;;;;;;;;;4911588;28;99523;-67
2023/01/28 07:42:12;;;;;;;11.52;8.68;;;;;;;;;;4913785;28;99007;-67
2023/01/28 07:44:38;;;;;;;10.85;8.63;;;;;;;;;;4913416;28;99188;-67
2023/01/28 07:47:05;;;;;;;11.70;9.00;;;;;;;;;;4929915;28;99767;-67
2023/01/28 07:49:33;;;;;;;11.35;8.35;;;;;;;;;;4932651;28;98891;-68
2023/01/28 07:51:59;;;;;;;13.20;9.77;;;;;;;;;;4933103;28;99189;-67
2023/01/28 07:54:25;;;;;;;14.88;9.68;;;;;;;;;;4934525;28;102651;-67
2023/01/28 07:56:52;;;;;;;12.43;9.18;;;;;;;;;;4932709;28;100447;-67
2023/01/28 07:59:18;;;;;;;12.25;9.45;;;;;;;;;;4931316;28;100970;-67
2023/01/28 08:01:44;;;;;;;13.82;9.55;;;;;;;;;;4931301;28;98833;-67
2023/01/28 08:04:11;;;;;;;13.38;9.02;;;;;;;;;;4931101;28;99537;-68
2023/01/28 08:06:37;;;;;;;10.15;8.27;;;;;;;;;;4931487;28;99504;-68
2023/01/28 08:09:05;;;;;;;13.77;8.80;;;;;;;;;;4932104;28;98519;-68
2023/01/28 08:11:31;;;;;;;13.45;9.23;;;;;;;;;;4932396;28;99223;-67
2023/01/28 08:13:58;;;;;;;12.05;9.00;;;;;;;;;;4931720;28;100686;-67
2023/01/28 08:16:24;;;;;;;13.57;9.77;;;;;;;;;;4936443;28;97832;-67
2023/01/28 08:18:51;;;;;;;12.00;9.23;;;;;;;;;;4931636;28;99882;-67
2023/01/28 08:21:17;;;;;;;12.77;10.30;;;;;;;;;;4932496;28;98516;-67
2023/01/28 08:23:44;;;;;;;12.48;9.48;;;;;;;;;;4930773;28;99689;-67
2023/01/28 08:26:10;;;;;;;12.98;9.55;;;;;;;;;;4930778;28;99354;-68
2023/01/28 08:28:36;;;;;;;11.80;9.30;;;;;;;;;;4931774;28;98665;-67
2023/01/28 08:31:03;;;;;;;15.63;9.18;;;;;;;;;;4931001;28;99148;-67
2023/01/28 08:33:29;;;;;;;13.65;10.15;;;;;;;;;;4931685;28;99566;-67
2023/01/28 08:35:56;;;;;;;12.15;9.90;;;;;;;;;;4927931;28;98686;-67
2023/01/28 08:38:22;;;;;;;13.02;8.73;;;;;;;;;;4924918;28;99283;-68
2023/01/28 08:40:49;;;;;;;13.45;9.77;;;;;;;;;;4912973;28;97866;-67
2023/01/28 08:43:16;;;;;;;13.38;10.05;;;;;;;;;;4912916;28;102494;-67
2023/01/28 08:45:42;;;;;;;13.00;9.13;;;;;;;;;;4917411;28;99896;-68
2023/01/28 08:48:11;;;;;;;17.13;12.80;;;;;;;;;;4930887;28;99281;-68
2023/01/28 08:50:38;;;;;;;14.20;9.63;;;;;;;;;;4931012;28;99971;-68
2023/01/28 08:53:05;;;;;;;11.45;8.73;;;;;;;;;;4931261;28;99510;-67
2023/01/28 08:55:32;;;;;;;11.93;9.40;;;;;;;;;;4931529;28;98623;-68
2023/01/28 08:58:02;;;;;;;12.05;9.25;;;;;;;;;;4931415;28;99458;-67
2023/01/28 09:00:29;;;;;;;11.68;9.15;;;;;;;;;;4934685;28;99748;-68
2023/01/28 09:02:55;;;;;;;12.15;9.35;;;;;;;;;;4931463;28;99516;-67
2023/01/28 09:05:21;;;;;;;16.58;9.85;;;;;;;;;;4931075;28;98809;-68
2023/01/28 09:07:48;;;;;;;16.75;10.45;;;;;;;;;;4931328;28;98570;-67
2023/01/28 09:10:15;;;;;;;13.57;9.07;;;;;;;;;;4930745;28;99315;-67
2023/01/28 09:12:42;;;;;;;11.48;9.73;;;;;;;;;;4930604;28;100223;-67
2023/01/28 09:15:09;;;;;;;14.30;10.10;;;;;;;;;;4915279;28;98653;-67
2023/01/28 09:17:35;;;;;;;15.13;9.32;;;;;;;;;;4930726;28;100713;-67
2023/01/28 09:20:01;;;;;;;12.65;9.80;;;;;;;;;;4934142;28;99510;-67
2023/01/28 09:22:27;;;;;;;12.63;9.90;;;;;;;;;;4931394;28;99105;-67
2023/01/28 09:24:54;;;;;;;13.68;9.88;;;;;;;;;;4931259;28;102810;-67
2023/01/28 09:27:20;;;;;;;18.23;11.30;;;;;;;;;;4931260;28;98577;-67
2023/01/28 09:29:46;;;;;;;11.23;9.38;;;;;;;;;;4930876;28;99221;-67
2023/01/28 09:32:12;;;;;;;11.55;9.07;;;;;;;;;;4929233;28;99909;-67
2023/01/28 09:34:39;;;;;;;12.00;9.07;;;;;;;;;;4931390;28;98605;-67
2023/01/28 09:37:05;;;;;;;16.08;9.98;;;;;;;;;;4916942;28;100277;-68
2023/01/28 09:39:32;;;;;;;15.70;9.73;;;;;;;;;;4910815;28;100632;-68
2023/01/28 09:41:58;;;;;;;13.80;9.60;;;;;;;;;;4915211;28;98528;-67
2023/01/28 09:44:42;;;;;;;14.02;8.82;;;;;;;;;;4929318;28;99485;-67
2023/01/28 09:47:19;;;;;;;9.95;7.90;;;;;;;;;;4932979;28;98616;-67
2023/01/28 09:49:48;;;;;;;11.35;8.75;;;;;;;;;;4934846;28;101728;-67
2023/01/28 09:52:16;;;;;;;11.65;8.00;;;;;;;;;;4934219;28;99573;-68
2023/01/28 09:54:51;;;;;;;11.27;8.27;;;;;;;;;;4934546;28;97733;-68
2023/01/28 09:57:20;;;;;;;15.25;8.43;;;;;;;;;;4934434;28;98628;-67
2023/01/28 09:59:46;;;;;;;11.85;7.97;;;;;;;;;;4933762;28;99619;-67
2023/01/28 10:02:25;;;;;;;12.20;8.60;;;;;;;;;;4933482;28;99272;-68
2023/01/28 10:05:03;;;;;;;10.30;7.78;;;;;;;;;;4936844;28;99958;-68
2023/01/28 10:07:46;;;;;;;11.73;8.20;;;;;;;;;;4933606;28;98567;-68
2023/01/28 10:10:13;;;;;;;10.23;8.15;;;;;;;;;;4934269;28;100356;-67
2023/01/28 10:12:48;;;;;;;14.18;7.82;;;;;;;;;;4933841;28;99448;-68
2023/01/28 10:15:41;;;;;;;15.13;8.07;;;;;;;;;;4933874;28;98715;-67
2023/01/28 10:18:08;;;;;;;10.32;7.45;;;;;;;;;;4931549;28;99155;-67
2023/01/28 10:20:46;;;;;;;8.98;7.22;;;;;;;;;;4933997;28;99117;-67
2023/01/28 10:23:24;;;;;;;11.93;7.17;;;;;;;;;;4933800;28;98574;-67
2023/01/28 10:25:51;;;;;;;9.43;6.38;;;;;;;;;;4934098;28;100274;-67
2023/01/28 10:28:25;;;;;;;7.22;6.47;;;;;;;;;;4934949;28;100273;-67
2023/01/28 10:30:52;;;;;;;10.88;6.65;;;;;;;;;;4933892;28;100194;-67
2023/01/28 10:33:18;;;;;;;10.18;6.75;;;;;;;;;;4932901;28;99566;-67
2023/01/28 10:35:44;;;;;;;7.25;6.07;;;;;;;;;;4930588;28;98584;-67
2023/01/28 10:38:15;;;;;;;8.77;6.75;;;;;;;;;;4914320;28;99250;-67
2023/01/28 10:40:43;;;;;;;8.68;6.32;;;;;;;;;;4928365;28;99652;-67
2023/01/28 10:43:09;;;;;;;7.47;5.78;;;;;;;;;;4912941;28;98690;-67
2023/01/28 10:45:54;;;;;;;7.68;6.20;;;;;;;;;;4918470;28;99256;-67
2023/01/28 10:48:27;;;;;;;8.18;4.90;;;;;;;;;;4933185;28;100046;-67
2023/01/28 10:50:55;;;;;;;5.68;4.78;;;;;;;;;;4936942;28;98469;-67
2023/01/28 10:53:35;;;;;;;6.63;5.30;;;;;;;;;;4932505;28;100464;-68
2023/01/28 10:56:03;;;;;;;4.67;4.27;;;;;;;;;;4933181;28;98806;-67
2023/01/28 10:58:30;;;;;;;7.00;5.38;;;;;;;;;;4932162;28;99175;-67
2023/01/28 11:00:58;;;;;;;5.95;4.80;;;;;;;;;;4933095;28;99596;-67
2023/01/28 11:03:33;;;;;;;5.28;4.53;;;;;;;;;;4933383;28;98956;-67
2023/01/28 11:06:00;;;;;;;8.35;4.80;;;;;;;;;;4932664;28;100342;-67
2023/01/28 11:08:28;;;;;;;4.30;3.78;;;;;;;;;;4932713;28;99552;-67
2023/01/28 11:10:55;;;;;;;7.65;3.65;;;;;;;;;;4933850;28;97788;-67
2023/01/28 11:13:25;;;;;;;3.92;3.25;;;;;;;;;;4936441;28;98596;-67
2023/01/28 11:15:59;;;;;;;4.38;3.60;;;;;;;;;;4932892;28;98519;-67
2023/01/28 11:18:27;;;;;;;4.15;3.42;;;;;;;;;;4932764;28;99194;-67
2023/01/28 11:20:56;;;;;;;4.22;3.83;;;;;;;;;;4933138;28;100075;-67
2023/01/28 11:23:25;;;;;;;4.32;3.92;;;;;;;;;;4932712;28;98574;-67
2023/01/28 11:26:05;;;;;;;7.57;3.95;;;;;;;;;;4932999;28;99568;-67
2023/01/28 11:28:32;;;;;;;4.05;3.50;;;;;;;;;;4932864;28;99560;-67
2023/01/28 11:30:59;;;;;;;7.65;3.50;;;;;;;;;;4932828;28;98860;-67
2023/01/28 11:33:32;;;;;;;6.35;3.75;;;;;;;;;;4934406;28;99342;-68
2023/01/28 11:36:06;;;;;;;10.10;3.97;;;;;;;;;;4929394;28;97922;-68
2023/01/28 11:38:33;;;;;;;3.78;2.97;;;;;;;;;;4922644;28;98851;-68
2023/01/28 11:41:02;;;;;;;3.78;3.30;;;;;;;;;;4930958;28;99961;-68
2023/01/28 11:43:30;;;;;;;8.07;3.23;;;;;;;;;;4932149;28;99340;-67
2023/01/28 11:46:11;;;;;;;3.60;3.30;;;;;;;;;;4932293;28;99926;-67
2023/01/28 11:48:52;;;;;;;3.47;3.17;;;;;;;;;;4931955;28;99656;-68
2023/01/28 11:51:35;;;;;;;4.72;3.35;;;;;;;;;;4931775;28;98511;-67
2023/01/28 11:54:01;;;;;;;6.13;3.53;;;;;;;;;;4932864;28;100812;-67
2023/01/28 11:56:48;;;;;;;4.28;3.88;;;;;;;;;;4935269;28;99514;-68
2023/01/28 11:59:26;;;;;;;6.30;4.35;;;;;;;;;;4932736;28;99268;-67
2023/01/28 12:01:58;;;;;;;6.28;3.72;;;;;;;;;;4932801;28;101856;-67
2023/01/28 12:04:42;;;;;;;6.18;4.20;;;;;;;;;;4932581;28;98767;-67
2023/01/28 12:07:09;;;;;;;6.18;4.35;;;;;;;;;;4931671;28;99386;-67
2023/01/28 12:09:41;;;;;;;4.65;4.25;;;;;;;;;;4931426;28;100338;-68
2023/01/28 12:12:17;;;;;;;5.80;3.75;;;;;;;;;;4932144;28;98684;-68
2023/01/28 12:14:52;;;;;;;5.78;3.90;;;;;;;;;;4917674;28;99222;-68
2023/01/28 12:17:33;;;;;;;5.22;4.00;;;;;;;;;;4931455;28;100497;-67
2023/01/28 12:20:08;;;;;;;3.67;3.38;;;;;;;;;;4935683;28;98563;-68
2023/01/28 12:22:44;;;;;;;4.45;3.65;;;;;;;;;;4931943;28;99796;-67
2023/01/28 12:25:29;;;;;;;5.13;3.55;;;;;;;;;;4932119;28;98582;-68
2023/01/28 12:28:08;;;;;;;3.90;3.53;;;;;;;;;;4932439;28;99222;-68
2023/01/28 12:30:43;;;;;;;3.35;3.05;;;;;;;;;;4931631;28;99427;-68
2023/01/28 12:33:28;;;;;;;3.45;3.15;;;;;;;;;;4932227;28;98698;-68
2023/01/28 12:36:13;;;;;;;4.03;3.63;;;;;;;;;;4931269;28;99379;-68
2023/01/28 12:38:48;;;;;;;3.70;3.30;;;;;;;;;;4931624;28;98905;-68
2023/01/28 12:41:19;;;;;;;3.70;3.40;;;;;;;;;;4931846;28;98605;-68
2023/01/28 12:43:50;;;;;;;3.60;3.30;;;;;;;;;;4934839;28;99202;-68
2023/01/28 12:46:26;;;;;;;3.83;3.30;;;;;;;;;;4930298;28;98572;-68
2023/01/28 12:49:13;;;;;;;5.38;3.70;;;;;;;;;;4931528;28;99630;-68
2023/01/28 12:51:49;;;;;;;4.38;3.67;;;;;;;;;;4924511;28;101409;-67
2023/01/28 12:54:23;;;;;;;4.43;3.40;;;;;;;;;;4930759;28;97805;-68
2023/01/28 12:56:55;;;;;;;6.28;3.60;;;;;;;;;;4931635;28;99973;-68
2023/01/28 12:59:48;;;;;;;8.45;3.60;;;;;;;;;;4931315;28;101029;-67
2023/01/28 13:02:23;;;;;;;4.68;3.70;;;;;;;;;;4928596;28;99593;-68
2023/01/28 13:04:53;;;;;;;4.00;3.55;;;;;;;;;;4931850;28;99941;-68
2023/01/28 13:07:19;;;;;;;5.10;3.85;;;;;;;;;;4933783;28;100088;-68
2023/01/28 13:09:53;;;;;;;4.75;4.35;;;;;;;;;;4931468;28;99143;-67
2023/01/28 13:12:20;;;;;;;3.97;3.47;;;;;;;;;;4931012;28;99506;-67
2023/01/28 13:14:47;;;;;;;6.35;3.83;;;;;;;;;;4931313;28;98534;-67
2023/01/28 13:17:30;;;;;;;4.22;3.83;;;;;;;;;;4929464;28;99197;-68
2023/01/28 13:19:57;;;;;;;5.28;3.95;;;;;;;;;;4931214;28;99099;-68
2023/01/28 13:22:26;;;;;;;7.72;4.28;;;;;;;;;;4931269;28;98714;-68
2023/01/28 13:24:53;;;;;;;5.35;4.45;;;;;;;;;;4931510;28;99293;-68
2023/01/28 13:27:24;;;;;;;4.20;3.80;;;;;;;;;;4930479;28;101721;-68
2023/01/28 13:29:59;;;;;;;4.13;3.72;;;;;;;;;;4933217;28;98592;-68
2023/01/28 13:32:28;;;;;;;8.00;4.55;;;;;;;;;;4931220;28;99492;-67
2023/01/28 13:35:03;;;;;;;4.85;3.85;;;;;;;;;;4931401;28;98572;-68
2023/01/28 13:37:31;;;;;;;6.03;3.70;;;;;;;;;;4914285;28;100187;-68
2023/01/28 13:40:22;;;;;;;7.25;4.03;;;;;;;;;;4910724;28;99466;-68
2023/01/28 13:42:58;;;;;;;8.50;4.03;;;;;;;;;;4906694;28;98625;-67
2023/01/28 13:45:24;;;;;;;7.22;4.45;;;;;;;;;;4914561;28;99036;-67
2023/01/28 13:47:57;;;;;;;5.72;4.30;;;;;;;;;;4930677;28;101055;-68
2023/01/28 13:50:26;;;;;;;7.28;4.80;;;;;;;;;;4933122;28;98890;-67
2023/01/28 13:53:02;;;;;;;7.55;4.30;;;;;;;;;;4930111;28;101301;-67
2023/01/28 13:55:35;;;;;;;4.97;4.28;;;;;;;;;;4931532;28;98537;-67
2023/01/28 13:58:11;;;;;;;11.18;4.80;;;;;;;;;;4930959;28;99409;-67
2023/01/28 14:00:44;;;;;;;5.15;4.65;;;;;;;;;;4930628;28;99809;-67
2023/01/28 14:03:29;;;;;;;8.52;4.50;;;;;;;;;;4930938;28;98818;-67
2023/01/28 14:06:07;;;;;;;5.30;4.05;;;;;;;;;;4930415;28;99293;-67
2023/01/28 14:08:33;;;;;;;6.95;4.38;;;;;;;;;;4930637;28;101328;-67
2023/01/28 14:11:19;;;;;;;5.72;4.70;;;;;;;;;;4931596;28;97798;-67
2023/01/28 14:14:04;;;;;;;8.27;4.53;;;;;;;;;;4933520;28;98659;-67
2023/01/28 14:16:40;;;;;;;9.10;4.28;;;;;;;;;;4931134;28;98581;-67
2023/01/28 14:19:09;;;;;;;7.95;4.13;;;;;;;;;;4930292;28;99318;-68
2023/01/28 14:21:35;;;;;;;4.97;3.88;;;;;;;;;;4928945;28;99652;-67
2023/01/28 14:24:02;;;;;;;7.55;4.45;;;;;;;;;;4931535;28;98679;-67
2023/01/28 14:26:47;;;;;;;7.15;4.13;;;;;;;;;;4931760;28;100180;-67
2023/01/28 14:29:28;;;;;;;4.55;3.70;;;;;;;;;;4930284;28;99517;-67
2023/01/28 14:31:55;;;;;;;6.28;3.83;;;;;;;;;;4934744;28;98523;-67
2023/01/28 14:34:40;;;;;;;8.48;4.15;;;;;;;;;;4935347;28;99594;-67
2023/01/28 14:37:23;;;;;;;5.65;3.45;;;;;;;;;;4933437;28;97840;-67
2023/01/28 14:39:51;;;;;;;5.63;3.13;;;;;;;;;;4914257;28;98768;-68
2023/01/28 14:42:20;;;;;;;6.80;3.72;;;;;;;;;;4915126;28;101020;-67
2023/01/28 14:44:49;;;;;;;4.20;3.40;;;;;;;;;;4913411;28;99463;-68
2023/01/28 14:47:15;;;;;;;5.00;3.50;;;;;;;;;;4931500;28;100221;-67
2023/01/28 14:49:49;;;;;;;4.97;3.35;;;;;;;;;;4931411;28;99606;-67
2023/01/28 14:52:18;;;;;;;6.20;3.47;;;;;;;;;;4933578;28;98511;-68
2023/01/28 14:54:57;;;;;;;5.32;3.47;;;;;;;;;;4933710;28;99744;-68
2023/01/28 14:57:23;;;;;;;9.05;3.42;;;;;;;;;;4932819;28;99624;-68
2023/01/28 14:59:53;;;;;;;7.93;4.55;;;;;;;;;;4936871;28;98602;-68
2023/01/28 15:02:21;;;;;;;9.15;4.30;;;;;;;;;;4933478;28;99183;-68
2023/01/28 15:04:48;;;;;;;11.88;4.25;;;;;;;;;;4933217;28;98507;-68
2023/01/28 15:07:19;;;;;;;7.25;4.80;;;;;;;;;;4931242;28;99958;-68
2023/01/28 15:09:46;;;;;;;9.90;6.05;;;;;;;;;;4932421;28;100313;-68
2023/01/28 15:12:14;;;;;;;8.82;5.78;;;;;;;;;;4933161;28;98611;-68
2023/01/28 15:14:42;;;;;;;11.93;6.85;;;;;;;;;;4918889;28;99146;-67
2023/01/28 15:17:17;;;;;;;8.55;4.60;;;;;;;;;;4930970;28;100633;-67
2023/01/28 15:19:43;;;;;;;8.10;5.22;;;;;;;;;;4931932;28;98588;-67